createdAt,value
2017-08-09T00:00:18.809Z,1003.1
2017-08-09T00:01:21.334Z,1003.1
2017-08-09T00:02:23.850Z,1003.1
2017-08-09T00:03:26.346Z,1003.1
2017-08-09T00:04:28.851Z,1003
2017-08-09T00:05:31.338Z,1003
2017-08-09T00:06:33.833Z,1003.1
2017-08-09T00:07:36.335Z,1003.1
2017-08-09T00:08:38.833Z,1003.2
2017-08-09T00:09:41.355Z,1003.2
2017-08-09T00:10:44.183Z,1003.2
2017-08-09T00:11:46.687Z,1003.1
2017-08-09T00:12:49.177Z,1003
2017-08-09T00:13:51.667Z,1003
2017-08-09T00:14:54.161Z,1003
2017-08-09T00:15:57.347Z,1003
2017-08-09T00:16:59.852Z,1003.1
2017-08-09T00:18:02.359Z,1003
2017-08-09T00:19:04.937Z,1003.1
2017-08-09T00:20:07.778Z,1003.1
2017-08-09T00:21:10.618Z,1003
2017-08-09T00:22:13.123Z,1003
2017-08-09T00:23:15.678Z,1003
2017-08-09T00:24:18.866Z,1003
2017-08-09T00:25:21.690Z,1003
2017-08-09T00:26:24.185Z,1003.1
2017-08-09T00:27:27.360Z,1003.1
2017-08-09T00:28:30.209Z,1003.2
2017-08-09T00:29:32.738Z,1003.2
2017-08-09T00:30:35.712Z,1003.3
2017-08-09T00:31:38.219Z,1003.3
2017-08-09T00:32:41.392Z,1003.3
2017-08-09T00:33:43.963Z,1003.3
2017-08-09T00:34:46.459Z,1003.3
2017-08-09T00:35:49.281Z,1003.4
2017-08-09T00:36:52.114Z,1003.4
2017-08-09T00:37:54.710Z,1003.4
2017-08-09T00:38:57.216Z,1003.4
2017-08-09T00:40:00.054Z,1003.4
2017-08-09T00:41:03.567Z,1003.3
2017-08-09T00:42:06.842Z,1003.4
2017-08-09T00:43:09.354Z,1003.5
2017-08-09T00:44:11.848Z,1003.5
2017-08-09T00:45:14.470Z,1003.6
2017-08-09T00:46:16.980Z,1003.7
2017-08-09T00:47:19.816Z,1003.6
2017-08-09T00:48:22.310Z,1003.6
2017-08-09T00:49:24.804Z,1003.7
2017-08-09T00:50:27.809Z,1003.7
2017-08-09T00:51:30.633Z,1003.6
2017-08-09T00:52:33.149Z,1003.6
2017-08-09T00:53:35.841Z,1003.5
2017-08-09T00:54:38.358Z,1003.6
2017-08-09T00:55:40.865Z,1003.6
2017-08-09T00:56:43.370Z,1003.6
2017-08-09T00:57:45.879Z,1003.6
2017-08-09T00:58:48.377Z,1003.6
2017-08-09T00:59:50.867Z,1003.6
2017-08-09T01:00:53.363Z,1003.6
2017-08-09T01:01:56.526Z,1003.6
2017-08-09T01:02:59.025Z,1003.6
2017-08-09T01:04:01.654Z,1003.6
2017-08-09T01:05:04.502Z,1003.6
2017-08-09T01:06:07.425Z,1003.6
2017-08-09T01:07:10.105Z,1003.6
2017-08-09T01:08:12.607Z,1003.5
2017-08-09T01:09:15.086Z,1003.6
2017-08-09T01:10:17.919Z,1003.6
2017-08-09T01:11:20.412Z,1003.6
2017-08-09T01:12:23.267Z,1003.6
2017-08-09T01:13:25.765Z,1003.6
2017-08-09T01:14:28.289Z,1003.5
2017-08-09T01:15:30.768Z,1003.5
2017-08-09T01:16:33.279Z,1003.6
2017-08-09T01:17:35.978Z,1003.6
2017-08-09T01:18:38.472Z,1003.7
2017-08-09T01:19:40.992Z,1003.7
2017-08-09T01:20:43.951Z,1003.7
2017-08-09T01:21:46.442Z,1003.7
2017-08-09T01:22:49.613Z,1003.7
2017-08-09T01:23:52.437Z,1003.7
2017-08-09T01:24:54.943Z,1003.7
2017-08-09T01:25:57.430Z,1003.7
2017-08-09T01:26:59.919Z,1003.8
2017-08-09T01:28:03.679Z,1003.8
2017-08-09T01:29:06.545Z,1003.8
2017-08-09T01:30:09.068Z,1003.9
2017-08-09T01:31:11.880Z,1003.9
2017-08-09T01:32:14.372Z,1003.9
2017-08-09T01:33:16.888Z,1004
2017-08-09T01:34:19.717Z,1004
2017-08-09T01:35:22.220Z,1004
2017-08-09T01:36:25.063Z,1004
2017-08-09T01:37:27.559Z,1004.1
2017-08-09T01:38:30.488Z,1004.1
2017-08-09T01:39:32.978Z,1004.1
2017-08-09T01:40:35.452Z,1004.1
2017-08-09T01:41:38.642Z,1004
2017-08-09T01:42:41.126Z,1004.1
2017-08-09T01:43:43.610Z,1004.1
2017-08-09T01:44:46.484Z,1004.2
2017-08-09T01:45:49.304Z,1004.1
2017-08-09T01:46:51.809Z,1004.2
2017-08-09T01:47:54.315Z,1004.2
2017-08-09T01:48:56.805Z,1004.2
2017-08-09T01:49:59.290Z,1004.1
2017-08-09T01:51:02.172Z,1004.1
2017-08-09T01:52:04.771Z,1004.1
2017-08-09T01:53:07.272Z,1004.1
2017-08-09T01:54:10.234Z,1004.2
2017-08-09T01:55:13.050Z,1004.1
2017-08-09T01:56:15.554Z,1004.1
2017-08-09T01:57:18.034Z,1004.1
2017-08-09T01:58:20.526Z,1004.1
2017-08-09T01:59:23.049Z,1004.2
2017-08-09T02:00:25.884Z,1004.1
2017-08-09T02:01:28.384Z,1004.2
2017-08-09T02:02:30.879Z,1004.1
2017-08-09T02:03:33.720Z,1004.2
2017-08-09T02:04:36.930Z,1004.2
2017-08-09T02:05:39.543Z,1004.2
2017-08-09T02:06:42.025Z,1004.2
2017-08-09T02:07:44.518Z,1004.2
2017-08-09T02:08:47.003Z,1004.1
2017-08-09T02:09:49.505Z,1004.2
2017-08-09T02:10:52.003Z,1004.2
2017-08-09T02:11:54.495Z,1004.2
2017-08-09T02:12:56.996Z,1004.2
2017-08-09T02:13:59.480Z,1004.1
2017-08-09T02:15:01.967Z,1004.1
2017-08-09T02:16:04.460Z,1004.1
2017-08-09T02:17:06.949Z,1004.2
2017-08-09T02:18:09.770Z,1004.1
2017-08-09T02:19:12.967Z,1004.1
2017-08-09T02:20:15.803Z,1004.2
2017-08-09T02:21:18.648Z,1004.2
2017-08-09T02:22:21.797Z,1004.2
2017-08-09T02:23:24.289Z,1004.2
2017-08-09T02:24:26.796Z,1004.3
2017-08-09T02:25:29.639Z,1004.3
2017-08-09T02:26:32.134Z,1004.3
2017-08-09T02:27:34.635Z,1004.4
2017-08-09T02:28:37.129Z,1004.4
2017-08-09T02:29:39.745Z,1004.3
2017-08-09T02:30:42.244Z,1004.4
2017-08-09T02:31:44.742Z,1004.4
2017-08-09T02:32:47.908Z,1004.4
2017-08-09T02:33:50.414Z,1004.5
2017-08-09T02:34:53.639Z,1004.4
2017-08-09T02:35:56.488Z,1004.5
2017-08-09T02:36:58.998Z,1004.5
2017-08-09T02:38:01.496Z,1004.5
2017-08-09T02:39:03.994Z,1004.5
2017-08-09T02:40:07.169Z,1004.5
2017-08-09T02:41:10.008Z,1004.5
2017-08-09T02:42:13.182Z,1004.5
2017-08-09T02:43:16.393Z,1004.5
2017-08-09T02:44:18.896Z,1004.5
2017-08-09T02:45:21.390Z,1004.5
2017-08-09T02:46:23.897Z,1004.5
2017-08-09T02:47:26.382Z,1004.5
2017-08-09T02:48:29.774Z,1004.5
2017-08-09T02:49:32.626Z,1004.5
2017-08-09T02:50:35.120Z,1004.6
2017-08-09T02:51:37.613Z,1004.6
2017-08-09T02:52:40.104Z,1004.6
2017-08-09T02:53:42.946Z,1004.6
2017-08-09T02:54:45.448Z,1004.7
2017-08-09T02:55:48.288Z,1004.7
2017-08-09T02:56:50.760Z,1004.7
2017-08-09T02:57:53.521Z,1004.7
2017-08-09T02:58:56.016Z,1004.7
2017-08-09T02:59:58.501Z,1004.8
2017-08-09T03:01:01.013Z,1004.8
2017-08-09T03:02:04.320Z,1004.7
2017-08-09T03:03:06.828Z,1004.8
2017-08-09T03:04:09.649Z,1004.7
2017-08-09T03:05:12.478Z,1004.7
2017-08-09T03:06:14.971Z,1004.7
2017-08-09T03:07:18.039Z,1004.7
2017-08-09T03:08:20.539Z,1004.7
2017-08-09T03:09:23.076Z,1004.8
2017-08-09T03:10:25.568Z,1004.7
2017-08-09T03:11:28.185Z,1004.7
2017-08-09T03:12:31.021Z,1004.8
2017-08-09T03:13:33.844Z,1004.8
2017-08-09T03:14:36.332Z,1004.8
2017-08-09T03:15:38.812Z,1004.8
2017-08-09T03:16:41.489Z,1004.8
2017-08-09T03:17:43.984Z,1004.8
2017-08-09T03:18:46.484Z,1004.8
2017-08-09T03:19:49.306Z,1004.8
2017-08-09T03:20:51.817Z,1004.8
2017-08-09T03:21:54.843Z,1004.8
2017-08-09T03:22:57.677Z,1004.8
2017-08-09T03:24:00.175Z,1004.8
2017-08-09T03:25:03.005Z,1004.8
2017-08-09T03:26:05.956Z,1004.8
2017-08-09T03:27:08.450Z,1004.8
2017-08-09T03:28:10.927Z,1004.8
2017-08-09T03:29:13.443Z,1004.8
2017-08-09T03:30:16.294Z,1004.8
2017-08-09T03:31:19.011Z,1004.8
2017-08-09T03:32:21.511Z,1004.8
2017-08-09T03:33:24.014Z,1004.8
2017-08-09T03:34:26.511Z,1004.9
2017-08-09T03:35:29.007Z,1004.8
2017-08-09T03:36:31.511Z,1004.8
2017-08-09T03:37:34.628Z,1004.8
2017-08-09T03:38:37.262Z,1004.8
2017-08-09T03:39:39.758Z,1004.8
2017-08-09T03:40:42.590Z,1004.8
2017-08-09T03:41:45.076Z,1004.8
2017-08-09T03:42:47.696Z,1004.8
2017-08-09T03:43:50.178Z,1004.9
2017-08-09T03:44:52.703Z,1004.8
2017-08-09T03:45:55.526Z,1004.8
2017-08-09T03:46:58.014Z,1004.9
2017-08-09T03:48:00.847Z,1004.9
2017-08-09T03:49:03.342Z,1004.9
2017-08-09T03:50:05.854Z,1004.9
2017-08-09T03:51:08.341Z,1004.9
2017-08-09T03:52:11.508Z,1004.8
2017-08-09T03:53:14.002Z,1004.8
2017-08-09T03:54:16.508Z,1004.8
2017-08-09T03:55:19.352Z,1004.8
2017-08-09T03:56:22.196Z,1004.9
2017-08-09T03:57:24.673Z,1004.9
2017-08-09T03:58:27.169Z,1004.9
2017-08-09T03:59:29.983Z,1004.9
2017-08-09T04:00:32.492Z,1004.9
2017-08-09T04:01:35.020Z,1004.9
2017-08-09T04:02:37.496Z,1004.9
2017-08-09T04:03:40.332Z,1005
2017-08-09T04:04:42.819Z,1005
2017-08-09T04:05:45.313Z,1005
2017-08-09T04:06:48.192Z,1004.9
2017-08-09T04:07:50.680Z,1005
2017-08-09T04:08:53.484Z,1005
2017-08-09T04:09:55.983Z,1005
2017-08-09T04:10:58.847Z,1005
2017-08-09T04:12:01.687Z,1005
2017-08-09T04:13:04.864Z,1005
2017-08-09T04:14:07.697Z,1005
2017-08-09T04:15:10.187Z,1005
2017-08-09T04:16:12.675Z,1005
2017-08-09T04:17:15.163Z,1005
2017-08-09T04:18:17.639Z,1005.1
2017-08-09T04:19:20.147Z,1005.1
2017-08-09T04:20:22.643Z,1005.1
2017-08-09T04:21:25.824Z,1005.1
2017-08-09T04:22:29.341Z,1005.2
2017-08-09T04:23:32.163Z,1005.2
2017-08-09T04:24:35.343Z,1005.2
2017-08-09T04:25:37.845Z,1005.2
2017-08-09T04:26:40.322Z,1005.3
2017-08-09T04:27:42.817Z,1005.3
2017-08-09T04:28:45.290Z,1005.3
2017-08-09T04:29:47.814Z,1005.3
2017-08-09T04:30:50.309Z,1005.4
2017-08-09T04:31:53.139Z,1005.4
2017-08-09T04:32:55.605Z,1005.4
2017-08-09T04:33:58.454Z,1005.5
2017-08-09T04:35:01.003Z,1005.5
2017-08-09T04:36:03.837Z,1005.5
2017-08-09T04:37:06.335Z,1005.5
2017-08-09T04:38:08.821Z,1005.6
2017-08-09T04:39:11.653Z,1005.5
2017-08-09T04:40:14.156Z,1005.5
2017-08-09T04:41:16.652Z,1005.5
2017-08-09T04:42:19.464Z,1005.5
2017-08-09T04:43:21.966Z,1005.5
2017-08-09T04:44:24.829Z,1005.5
2017-08-09T04:45:27.346Z,1005.4
2017-08-09T04:46:30.169Z,1005.4
2017-08-09T04:47:32.660Z,1005.5
2017-08-09T04:48:35.513Z,1005.5
2017-08-09T04:49:38.024Z,1005.6
2017-08-09T04:50:40.852Z,1005.5
2017-08-09T04:51:43.369Z,1005.6
2017-08-09T04:52:45.850Z,1005.5
2017-08-09T04:53:48.340Z,1005.5
2017-08-09T04:54:50.829Z,1005.6
2017-08-09T04:55:53.672Z,1005.5
2017-08-09T04:56:56.176Z,1005.5
2017-08-09T04:57:58.661Z,1005.5
2017-08-09T04:59:01.160Z,1005.5
2017-08-09T05:00:04.004Z,1005.5
2017-08-09T05:01:06.505Z,1005.6
2017-08-09T05:02:09.033Z,1005.6
2017-08-09T05:03:11.539Z,1005.6
2017-08-09T05:04:14.027Z,1005.5
2017-08-09T05:05:16.512Z,1005.5
2017-08-09T05:06:19.352Z,1005.5
2017-08-09T05:07:21.825Z,1005.5
2017-08-09T05:08:24.696Z,1005.6
2017-08-09T05:09:27.191Z,1005.5
2017-08-09T05:10:30.364Z,1005.5
2017-08-09T05:11:33.194Z,1005.6
2017-08-09T05:12:36.022Z,1005.6
2017-08-09T05:13:38.846Z,1005.6
2017-08-09T05:14:41.689Z,1005.6
2017-08-09T05:15:44.189Z,1005.6
2017-08-09T05:16:47.018Z,1005.6
2017-08-09T05:17:49.528Z,1005.6
2017-08-09T05:18:52.017Z,1005.6
2017-08-09T05:19:54.502Z,1005.6
2017-08-09T05:20:57.338Z,1005.7
2017-08-09T05:22:00.190Z,1005.7
2017-08-09T05:23:03.029Z,1005.7
2017-08-09T05:24:05.882Z,1005.7
2017-08-09T05:25:08.353Z,1005.7
2017-08-09T05:26:10.852Z,1005.7
2017-08-09T05:27:13.369Z,1005.7
2017-08-09T05:28:15.845Z,1005.7
2017-08-09T05:29:18.344Z,1005.7
2017-08-09T05:30:21.192Z,1005.6
2017-08-09T05:31:24.030Z,1005.7
2017-08-09T05:32:26.513Z,1005.7
2017-08-09T05:33:29.013Z,1005.7
2017-08-09T05:34:31.498Z,1005.7
2017-08-09T05:35:34.037Z,1005.7
2017-08-09T05:36:36.865Z,1005.7
2017-08-09T05:37:39.690Z,1005.8
2017-08-09T05:38:42.184Z,1005.8
2017-08-09T05:39:45.059Z,1005.8
2017-08-09T05:40:47.904Z,1005.9
2017-08-09T05:41:50.737Z,1005.9
2017-08-09T05:42:53.243Z,1005.8
2017-08-09T05:43:55.720Z,1005.8
2017-08-09T05:44:58.551Z,1005.8
2017-08-09T05:46:01.048Z,1005.9
2017-08-09T05:47:03.885Z,1005.9
2017-08-09T05:48:06.711Z,1005.8
2017-08-09T05:49:09.579Z,1005.8
2017-08-09T05:50:12.076Z,1005.8
2017-08-09T05:51:14.596Z,1005.8
2017-08-09T05:52:17.093Z,1005.8
2017-08-09T05:53:19.595Z,1005.9
2017-08-09T05:54:22.102Z,1005.9
2017-08-09T05:55:24.605Z,1005.9
2017-08-09T05:56:27.094Z,1005.9
2017-08-09T05:57:30.255Z,1005.9
2017-08-09T05:58:32.772Z,1005.9
2017-08-09T05:59:35.613Z,1005.9
2017-08-09T06:00:38.106Z,1005.9
2017-08-09T06:01:40.944Z,1006
2017-08-09T06:02:43.443Z,1006
2017-08-09T06:03:45.928Z,1006
2017-08-09T06:04:48.780Z,1006
2017-08-09T06:05:51.266Z,1006.1
2017-08-09T06:06:53.759Z,1006.1
2017-08-09T06:07:56.259Z,1006.1
2017-08-09T06:08:59.097Z,1006.1
2017-08-09T06:10:01.922Z,1006.1
2017-08-09T06:11:04.763Z,1006.1
2017-08-09T06:12:07.255Z,1006.1
2017-08-09T06:13:09.752Z,1006.2
2017-08-09T06:14:12.602Z,1006.2
2017-08-09T06:15:15.080Z,1006.2
2017-08-09T06:16:17.583Z,1006.2
2017-08-09T06:17:20.069Z,1006.1
2017-08-09T06:18:22.906Z,1006.2
2017-08-09T06:19:25.412Z,1006.2
2017-08-09T06:20:27.920Z,1006.3
2017-08-09T06:21:30.424Z,1006.2
2017-08-09T06:22:33.269Z,1006.2
2017-08-09T06:23:35.773Z,1006.3
2017-08-09T06:24:38.604Z,1006.3
2017-08-09T06:25:41.086Z,1006.3
2017-08-09T06:26:44.291Z,1006.3
2017-08-09T06:27:46.789Z,1006.2
2017-08-09T06:28:49.629Z,1006.2
2017-08-09T06:29:52.125Z,1006.3
2017-08-09T06:30:54.960Z,1006.3
2017-08-09T06:31:57.451Z,1006.2
2017-08-09T06:32:59.951Z,1006.2
2017-08-09T06:34:02.784Z,1006.2
2017-08-09T06:35:05.271Z,1006.3
2017-08-09T06:36:07.761Z,1006.3
2017-08-09T06:37:10.241Z,1006.4
2017-08-09T06:38:12.737Z,1006.4
2017-08-09T06:39:15.235Z,1006.3
2017-08-09T06:40:18.420Z,1006.4
2017-08-09T06:41:20.929Z,1006.4
2017-08-09T06:42:23.427Z,1006.4
2017-08-09T06:43:25.917Z,1006.4
2017-08-09T06:44:28.419Z,1006.4
2017-08-09T06:45:30.928Z,1006.5
2017-08-09T06:46:33.752Z,1006.4
2017-08-09T06:47:36.256Z,1006.5
2017-08-09T06:48:38.750Z,1006.4
2017-08-09T06:49:41.235Z,1006.4
2017-08-09T06:50:43.723Z,1006.4
2017-08-09T06:51:46.208Z,1006.3
2017-08-09T06:52:48.694Z,1006.4
2017-08-09T06:53:51.881Z,1006.4
2017-08-09T06:54:54.716Z,1006.4
2017-08-09T06:55:57.197Z,1006.3
2017-08-09T06:56:59.703Z,1006.4
2017-08-09T06:58:02.560Z,1006.4
2017-08-09T06:59:05.386Z,1006.3
2017-08-09T07:00:07.873Z,1006.4
2017-08-09T07:01:10.367Z,1006.5
2017-08-09T07:02:12.864Z,1006.4
2017-08-09T07:03:15.377Z,1006.4
2017-08-09T07:04:17.893Z,1006.4
2017-08-09T07:05:20.381Z,1006.4
2017-08-09T07:06:23.231Z,1006.5
2017-08-09T07:07:25.743Z,1006.4
2017-08-09T07:08:28.223Z,1006.4
2017-08-09T07:09:30.720Z,1006.5
2017-08-09T07:10:33.219Z,1006.5
2017-08-09T07:11:35.713Z,1006.5
2017-08-09T07:12:38.565Z,1006.5
2017-08-09T07:13:41.397Z,1006.4
2017-08-09T07:14:44.230Z,1006.5
2017-08-09T07:15:47.091Z,1006.5
2017-08-09T07:16:49.948Z,1006.6
2017-08-09T07:17:52.802Z,1006.5
2017-08-09T07:18:55.290Z,1006.6
2017-08-09T07:19:57.761Z,1006.6
2017-08-09T07:21:00.253Z,1006.6
2017-08-09T07:22:03.454Z,1006.7
2017-08-09T07:23:05.937Z,1006.6
2017-08-09T07:24:08.435Z,1006.7
2017-08-09T07:25:10.929Z,1006.8
2017-08-09T07:26:13.753Z,1006.7
2017-08-09T07:27:16.597Z,1006.7
2017-08-09T07:28:19.427Z,1006.7
2017-08-09T07:29:21.921Z,1006.7
2017-08-09T07:30:24.428Z,1006.8
2017-08-09T07:31:26.899Z,1006.6
2017-08-09T07:32:29.744Z,1006.7
2017-08-09T07:33:32.245Z,1006.7
2017-08-09T07:34:34.741Z,1006.7
2017-08-09T07:35:37.233Z,1006.7
2017-08-09T07:36:40.056Z,1006.8
2017-08-09T07:37:42.874Z,1006.8
2017-08-09T07:38:45.377Z,1006.8
2017-08-09T07:39:48.229Z,1006.7
2017-08-09T07:40:50.749Z,1006.8
2017-08-09T07:41:53.277Z,1006.8
2017-08-09T07:42:56.119Z,1006.8
2017-08-09T07:43:58.622Z,1006.8
2017-08-09T07:45:01.130Z,1006.8
2017-08-09T07:46:03.946Z,1006.8
2017-08-09T07:47:06.773Z,1006.8
2017-08-09T07:48:09.271Z,1006.8
2017-08-09T07:49:11.754Z,1006.7
2017-08-09T07:50:14.242Z,1006.8
2017-08-09T07:51:16.751Z,1006.8
2017-08-09T07:52:19.248Z,1006.8
2017-08-09T07:53:21.764Z,1006.9
2017-08-09T07:54:24.252Z,1006.8
2017-08-09T07:55:26.726Z,1006.8
2017-08-09T07:56:29.255Z,1006.8
2017-08-09T07:57:31.795Z,1006.8
2017-08-09T07:58:34.289Z,1006.8
2017-08-09T07:59:37.147Z,1006.9
2017-08-09T08:00:39.645Z,1006.8
2017-08-09T08:01:42.144Z,1006.9
2017-08-09T08:02:44.635Z,1006.9
2017-08-09T08:03:47.144Z,1006.9
2017-08-09T08:04:49.660Z,1006.9
2017-08-09T08:05:52.496Z,1006.9
2017-08-09T08:06:55.007Z,1006.9
2017-08-09T08:07:57.498Z,1006.9
2017-08-09T08:08:59.994Z,1006.9
2017-08-09T08:10:02.841Z,1007
2017-08-09T08:11:05.335Z,1006.9
2017-08-09T08:12:08.179Z,1007
2017-08-09T08:13:11.008Z,1007
2017-08-09T08:14:13.853Z,1007
2017-08-09T08:15:16.355Z,1007
2017-08-09T08:16:19.211Z,1007
2017-08-09T08:17:21.705Z,1007
2017-08-09T08:18:24.224Z,1007
2017-08-09T08:19:26.735Z,1007.1
2017-08-09T08:20:29.234Z,1007
2017-08-09T08:21:31.744Z,1007.1
2017-08-09T08:22:34.235Z,1007.1
2017-08-09T08:23:36.744Z,1007.1
2017-08-09T08:24:39.236Z,1007.2
2017-08-09T08:25:41.723Z,1007.1
2017-08-09T08:26:44.224Z,1007.1
2017-08-09T08:27:46.737Z,1007.1
2017-08-09T08:28:49.551Z,1007.1
2017-08-09T08:29:52.061Z,1007.1
2017-08-09T08:30:54.566Z,1007.2
2017-08-09T08:31:57.057Z,1007.2
2017-08-09T08:32:59.550Z,1007.2
2017-08-09T08:34:02.058Z,1007.2
2017-08-09T08:35:04.560Z,1007.2
2017-08-09T08:36:07.080Z,1007.2
2017-08-09T08:37:09.578Z,1007.3
2017-08-09T08:38:12.081Z,1007.3
2017-08-09T08:39:15.595Z,1007.3
2017-08-09T08:40:18.482Z,1007.3
2017-08-09T08:41:20.987Z,1007.3
2017-08-09T08:42:23.508Z,1007.3
2017-08-09T08:43:26.005Z,1007.3
2017-08-09T08:44:28.531Z,1007.3
2017-08-09T08:45:31.035Z,1007.3
2017-08-09T08:46:33.544Z,1007.3
2017-08-09T08:47:36.393Z,1007.5
2017-08-09T08:48:38.901Z,1007.3
2017-08-09T08:49:41.403Z,1007.3
2017-08-09T08:50:43.922Z,1007.3
2017-08-09T08:51:46.406Z,1007.3
2017-08-09T08:52:48.907Z,1007.4
2017-08-09T08:53:51.408Z,1007.3
2017-08-09T08:54:53.914Z,1007.3
2017-08-09T08:55:56.435Z,1007.3
2017-08-09T08:56:59.274Z,1007.3
2017-08-09T08:58:02.116Z,1007.3
2017-08-09T08:59:04.617Z,1007.4
2017-08-09T09:00:07.460Z,1007.4
2017-08-09T09:01:09.965Z,1007.4
2017-08-09T09:02:12.473Z,1007.4
2017-08-09T09:03:15.318Z,1007.4
2017-08-09T09:04:17.838Z,1007.4
2017-08-09T09:05:20.327Z,1007.4
2017-08-09T09:06:22.821Z,1007.4
2017-08-09T09:07:25.309Z,1007.5
2017-08-09T09:08:27.806Z,1007.4
2017-08-09T09:09:30.317Z,1007.4
2017-08-09T09:10:33.160Z,1007.4
2017-08-09T09:11:35.658Z,1007.4
2017-08-09T09:12:38.157Z,1007.4
2017-08-09T09:13:41.002Z,1007.5
2017-08-09T09:14:43.517Z,1007.5
2017-08-09T09:15:46.029Z,1007.4
2017-08-09T09:16:48.556Z,1007.5
2017-08-09T09:17:51.405Z,1007.4
2017-08-09T09:18:54.264Z,1007.4
2017-08-09T09:19:56.784Z,1007.4
2017-08-09T09:20:59.649Z,1007.4
2017-08-09T09:22:02.882Z,1007.4
2017-08-09T09:23:05.721Z,1007.4
2017-08-09T09:24:08.256Z,1007.4
2017-08-09T09:25:10.750Z,1007.4
2017-08-09T09:26:13.257Z,1007.5
2017-08-09T09:27:15.768Z,1007.4
2017-08-09T09:28:18.256Z,1007.5
2017-08-09T09:29:20.748Z,1007.5
2017-08-09T09:30:23.600Z,1007.5
2017-08-09T09:31:26.107Z,1007.5
2017-08-09T09:32:28.614Z,1007.5
2017-08-09T09:33:31.484Z,1007.5
2017-08-09T09:34:34.318Z,1007.5
2017-08-09T09:35:36.854Z,1007.5
2017-08-09T09:36:39.370Z,1007.6
2017-08-09T09:37:42.205Z,1007.5
2017-08-09T09:38:44.723Z,1007.6
2017-08-09T09:39:47.235Z,1007.6
2017-08-09T09:40:49.743Z,1007.6
2017-08-09T09:41:52.273Z,1007.6
2017-08-09T09:42:55.119Z,1007.6
2017-08-09T09:43:57.616Z,1007.6
2017-08-09T09:45:00.483Z,1007.6
2017-08-09T09:46:03.354Z,1007.7
2017-08-09T09:47:05.915Z,1007.6
2017-08-09T09:48:08.810Z,1007.6
2017-08-09T09:49:11.665Z,1007.6
2017-08-09T09:50:14.547Z,1007.6
2017-08-09T09:51:17.060Z,1007.6
2017-08-09T09:52:19.947Z,1007.6
2017-08-09T09:53:22.457Z,1007.7
2017-08-09T09:54:24.971Z,1007.6
2017-08-09T09:55:27.494Z,1007.6
2017-08-09T09:56:30.418Z,1007.7
2017-08-09T09:57:32.952Z,1007.6
2017-08-09T09:58:35.501Z,1007.7
2017-08-09T09:59:38.007Z,1007.7
2017-08-09T10:00:41.242Z,1007.6
2017-08-09T10:01:44.094Z,1007.8
2017-08-09T10:02:46.930Z,1007.8
2017-08-09T10:03:49.503Z,1007.7
2017-08-09T10:04:52.012Z,1007.7
2017-08-09T10:05:54.550Z,1007.7
2017-08-09T10:06:57.156Z,1007.8
2017-08-09T10:07:59.689Z,1007.8
2017-08-09T10:09:02.638Z,1007.8
2017-08-09T10:10:05.627Z,1007.8
2017-08-09T10:11:08.177Z,1007.8
2017-08-09T10:12:11.015Z,1007.7
2017-08-09T10:13:13.543Z,1007.7
2017-08-09T10:14:16.114Z,1007.7
2017-08-09T10:15:18.981Z,1007.7
2017-08-09T10:16:21.853Z,1007.7
2017-08-09T10:17:24.734Z,1007.7
2017-08-09T10:18:27.247Z,1007.8
2017-08-09T10:19:30.087Z,1007.8
2017-08-09T10:20:32.815Z,1007.8
2017-08-09T10:21:35.671Z,1007.7
2017-08-09T10:22:38.909Z,1007.7
2017-08-09T10:23:41.450Z,1007.7
2017-08-09T10:24:43.999Z,1007.7
2017-08-09T10:25:46.685Z,1007.7
2017-08-09T10:26:49.534Z,1007.8
2017-08-09T10:27:52.024Z,1007.8
2017-08-09T10:28:54.529Z,1007.8
2017-08-09T10:29:57.059Z,1007.7
2017-08-09T10:30:59.932Z,1007.7
2017-08-09T10:32:02.900Z,1007.8
2017-08-09T10:33:05.475Z,1007.8
2017-08-09T10:34:08.439Z,1007.8
2017-08-09T10:35:11.065Z,1007.8
2017-08-09T10:36:13.698Z,1007.8
2017-08-09T10:37:16.187Z,1007.8
2017-08-09T10:38:18.817Z,1007.8
2017-08-09T10:39:21.678Z,1007.8
2017-08-09T10:40:24.244Z,1007.8
2017-08-09T10:41:26.782Z,1007.8
2017-08-09T10:42:29.295Z,1007.8
2017-08-09T10:43:31.992Z,1007.9
2017-08-09T10:44:34.523Z,1007.8
2017-08-09T10:45:37.042Z,1007.9
2017-08-09T10:46:39.562Z,1007.9
2017-08-09T10:47:42.082Z,1007.9
2017-08-09T10:48:44.726Z,1007.9
2017-08-09T10:49:47.599Z,1007.8
2017-08-09T10:50:50.532Z,1007.8
2017-08-09T10:51:53.049Z,1007.9
2017-08-09T10:52:56.004Z,1007.9
2017-08-09T10:53:58.528Z,1007.8
2017-08-09T10:55:01.081Z,1008
2017-08-09T10:56:04.291Z,1007.9
2017-08-09T10:57:06.930Z,1007.9
2017-08-09T10:58:09.470Z,1007.8
2017-08-09T10:59:12.379Z,1007.9
2017-08-09T11:00:15.034Z,1007.9
2017-08-09T11:01:17.965Z,1008
2017-08-09T11:02:21.771Z,1007.9
2017-08-09T11:03:24.392Z,1007.9
2017-08-09T11:04:28.264Z,1008
2017-08-09T11:05:30.795Z,1008
2017-08-09T11:06:33.411Z,1007.9
2017-08-09T11:07:35.973Z,1007.9
2017-08-09T11:08:38.552Z,1007.9
2017-08-09T11:09:41.570Z,1007.9
2017-08-09T11:10:44.741Z,1007.8
2017-08-09T11:11:47.397Z,1007.9
2017-08-09T11:12:51.265Z,1007.8
2017-08-09T11:13:53.837Z,1007.9
2017-08-09T11:14:57.569Z,1007.9
2017-08-09T11:16:00.089Z,1007.9
2017-08-09T11:17:03.201Z,1007.9
2017-08-09T11:18:06.105Z,1008
2017-08-09T11:19:09.103Z,1008
2017-08-09T11:20:12.083Z,1008
2017-08-09T11:21:14.809Z,1008
2017-08-09T11:22:17.337Z,1008
2017-08-09T11:23:19.843Z,1007.9
2017-08-09T11:24:22.508Z,1007.9
2017-08-09T11:25:25.021Z,1007.9
2017-08-09T11:26:27.521Z,1007.9
2017-08-09T11:27:30.367Z,1007.9
2017-08-09T11:28:32.875Z,1007.9
2017-08-09T11:29:35.369Z,1007.9
2017-08-09T11:30:37.868Z,1007.9
2017-08-09T11:31:40.758Z,1007.9
2017-08-09T11:32:43.322Z,1007.9
2017-08-09T11:33:45.916Z,1007.9
2017-08-09T11:34:49.031Z,1007.9
2017-08-09T11:35:51.832Z,1008
2017-08-09T11:36:55.354Z,1008
2017-08-09T11:37:58.583Z,1007.9
2017-08-09T11:39:01.124Z,1007.9
2017-08-09T11:40:03.924Z,1008
2017-08-09T11:41:07.546Z,1008
2017-08-09T11:42:10.074Z,1008
2017-08-09T11:43:13.492Z,1008
2017-08-09T11:44:16.013Z,1008
2017-08-09T11:45:19.072Z,1008
2017-08-09T11:46:22.071Z,1008
2017-08-09T11:47:24.644Z,1008
2017-08-09T11:48:27.655Z,1008
2017-08-09T11:49:30.347Z,1008
2017-08-09T11:50:33.077Z,1008
2017-08-09T11:51:36.308Z,1007.9
2017-08-09T11:52:39.150Z,1008
2017-08-09T11:53:41.674Z,1008
2017-08-09T11:54:44.180Z,1008
2017-08-09T11:55:47.037Z,1008
2017-08-09T11:56:49.910Z,1008.1
2017-08-09T11:57:52.416Z,1008
2017-08-09T11:58:55.592Z,1008.1
2017-08-09T11:59:58.102Z,1008
2017-08-09T12:01:00.601Z,1008
2017-08-09T12:02:03.112Z,1008.1
2017-08-09T12:03:05.613Z,1008
2017-08-09T12:04:08.451Z,1008
2017-08-09T12:05:10.950Z,1008
2017-08-09T12:06:13.454Z,1008
2017-08-09T12:07:16.076Z,1008.1
2017-08-09T12:08:19.244Z,1008.1
2017-08-09T12:09:21.740Z,1008.1
2017-08-09T12:10:24.271Z,1008.1
2017-08-09T12:11:27.467Z,1008.1
2017-08-09T12:12:29.969Z,1008.2
2017-08-09T12:13:32.794Z,1008.1
2017-08-09T12:14:35.774Z,1008.1
2017-08-09T12:15:38.268Z,1008.2
2017-08-09T12:16:41.459Z,1008.1
2017-08-09T12:17:44.335Z,1008
2017-08-09T12:18:47.193Z,1008
2017-08-09T12:19:50.041Z,1008.2
2017-08-09T12:20:52.896Z,1008
2017-08-09T12:21:56.381Z,1008
2017-08-09T12:22:58.894Z,1008.1
2017-08-09T12:24:01.405Z,1008.1
2017-08-09T12:25:05.903Z,1008.1
2017-08-09T12:26:08.413Z,1008.1
2017-08-09T12:27:11.096Z,1008.2
2017-08-09T12:28:13.700Z,1008.2
2017-08-09T12:29:16.560Z,1008.2
2017-08-09T12:30:19.073Z,1008.2
2017-08-09T12:31:21.561Z,1008.2
2017-08-09T12:32:24.176Z,1008.2
2017-08-09T12:33:27.347Z,1008.2
2017-08-09T12:34:29.849Z,1008.3
2017-08-09T12:35:32.345Z,1008.3
2017-08-09T12:36:34.848Z,1008.3
2017-08-09T12:37:38.063Z,1008.3
2017-08-09T12:38:40.934Z,1008.3
2017-08-09T12:39:43.432Z,1008.3
2017-08-09T12:40:45.964Z,1008.3
2017-08-09T12:41:49.512Z,1008.3
2017-08-09T12:42:52.020Z,1008.3
2017-08-09T12:43:54.856Z,1008.3
2017-08-09T12:44:57.374Z,1008.4
2017-08-09T12:45:59.875Z,1008.3
2017-08-09T12:47:03.095Z,1008.4
2017-08-09T12:48:05.584Z,1008.3
2017-08-09T12:49:08.122Z,1008.3
2017-08-09T12:50:10.613Z,1008.3
2017-08-09T12:51:13.106Z,1008.3
2017-08-09T12:52:15.618Z,1008.3
2017-08-09T12:53:18.142Z,1008.4
2017-08-09T12:54:20.651Z,1008.4
2017-08-09T12:55:23.497Z,1008.2
2017-08-09T12:56:26.312Z,1008.3
2017-08-09T12:57:28.835Z,1008.3
2017-08-09T12:58:31.357Z,1008.2
2017-08-09T12:59:33.855Z,1008.3
2017-08-09T13:00:36.363Z,1008.3
2017-08-09T13:01:38.864Z,1008.3
2017-08-09T13:02:41.365Z,1008.4
2017-08-09T13:03:43.867Z,1008.4
2017-08-09T13:04:46.380Z,1008.3
2017-08-09T13:05:49.203Z,1008.3
2017-08-09T13:06:51.699Z,1008.4